Time;durP1;ratioP1;P1;durP2;ratioP2;P2;SDS_P1;SDS_P2;PMS_P1;PMS_P2;Temp;Humidity;BMP_temperature;BMP_pressure;BME280_temperature;BME280_humidity;BME280_pressure;Samples;Min_cycle;Max_cycle;Signal;HPM_P1;HPM_P2
2022/12/03 00:01:22;;;;;;;38.80;15.55;;;2.90;99.90;;;;;;5044947;28;20116;-66
2022/12/03 00:03:47;;;;;;;34.28;15.30;;;2.90;99.90;;;;;;5047494;28;20407;-66
2022/12/03 00:06:13;;;;;;;35.47;14.43;;;2.90;99.90;;;;;;5052019;28;20044;-66
2022/12/03 00:08:39;;;;;;;37.05;14.63;;;2.90;99.90;;;;;;5054052;28;20041;-66
2022/12/03 00:11:04;;;;;;;36.13;15.57;;;2.90;99.90;;;;;;5049923;28;20398;-66
2022/12/03 00:13:30;;;;;;;33.90;14.52;;;2.90;99.90;;;;;;5053677;28;20273;-66
2022/12/03 00:15:55;;;;;;;41.85;16.15;;;2.80;99.90;;;;;;5052371;28;20045;-66
2022/12/03 00:18:21;;;;;;;32.42;13.45;;;2.80;99.90;;;;;;5048778;28;20559;-66
2022/12/03 00:20:47;;;;;;;38.80;15.80;;;2.80;99.90;;;;;;5052766;28;20040;-66
2022/12/03 00:23:12;;;;;;;39.10;15.15;;;2.80;99.90;;;;;;5054556;28;20037;-66
2022/12/03 00:25:38;;;;;;;35.72;15.00;;;2.80;99.90;;;;;;5051872;28;20037;-66
2022/12/03 00:28:03;;;;;;;30.65;12.20;;;2.80;99.90;;;;;;5074733;22;20047;-67
2022/12/03 00:30:29;;;;;;;32.53;14.50;;;2.80;99.90;;;;;;5062475;28;20397;-68
2022/12/03 00:32:54;;;;;;;34.47;13.90;;;2.80;99.90;;;;;;5064079;28;20037;-68
2022/12/03 00:35:20;;;;;;;39.17;15.38;;;2.90;99.90;;;;;;5065352;28;20043;-68
2022/12/03 00:37:46;;;;;;;33.97;13.07;;;2.90;99.90;;;;;;5070702;28;20064;-68
2022/12/03 00:40:12;;;;;;;34.17;15.00;;;2.90;99.90;;;;;;5058970;28;20043;-68
2022/12/03 00:42:37;;;;;;;33.60;13.40;;;2.90;99.90;;;;;;5052523;28;20041;-67
2022/12/03 00:45:03;;;;;;;45.10;18.10;;;2.90;99.90;;;;;;5065794;28;20136;-68
2022/12/03 00:47:29;;;;;;;38.45;14.23;;;2.90;99.90;;;;;;5054222;28;20032;-68
2022/12/03 00:49:54;;;;;;;38.33;16.65;;;2.90;99.90;;;;;;5052458;28;20469;-67
2022/12/03 00:52:20;;;;;;;34.65;13.43;;;2.90;99.90;;;;;;5054233;28;20064;-67
2022/12/03 00:54:45;;;;;;;37.45;15.73;;;2.90;99.90;;;;;;5057864;28;20380;-68
2022/12/03 00:57:11;;;;;;;35.00;14.35;;;3.00;99.90;;;;;;5064860;28;20044;-68
2022/12/03 00:59:37;;;;;;;36.90;14.38;;;3.00;99.90;;;;;;5056296;28;20442;-68
2022/12/03 01:02:02;;;;;;;39.35;15.30;;;3.00;99.90;;;;;;5053850;28;20045;-68
2022/12/03 01:04:28;;;;;;;42.45;16.63;;;3.00;99.90;;;;;;5053740;28;20399;-68
2022/12/03 01:06:54;;;;;;;37.60;15.63;;;3.00;99.90;;;;;;5052582;28;20383;-68
2022/12/03 01:09:19;;;;;;;38.53;14.57;;;3.00;99.90;;;;;;5052215;28;20033;-68
2022/12/03 01:11:45;;;;;;;39.40;15.82;;;3.00;99.90;;;;;;5058768;28;20044;-68
2022/12/03 01:14:13;;;;;;;37.85;17.00;;;3.10;99.90;;;;;;5062313;28;20037;-68
2022/12/03 01:16:40;;;;;;;37.67;16.02;;;3.10;99.90;;;;;;5059370;28;20510;-68
2022/12/03 01:19:07;;;;;;;38.17;15.98;;;3.10;99.90;;;;;;5037535;28;20045;-68
2022/12/03 01:21:33;;;;;;;40.50;16.15;;;3.10;99.90;;;;;;5043115;28;20612;-68
2022/12/03 01:23:59;;;;;;;41.55;16.75;;;3.10;99.90;;;;;;5060774;28;20037;-68
2022/12/03 01:26:25;;;;;;;34.78;15.65;;;3.10;99.90;;;;;;5036483;28;20064;-68
2022/12/03 01:28:51;;;;;;;39.55;16.70;;;3.10;99.90;;;;;;5060164;28;20036;-68
2022/12/03 01:34:01;;;;;;;38.72;15.43;;;3.10;99.90;;;;;;5060787;28;20114;-68
2022/12/03 01:36:27;;;;;;;41.38;16.55;;;3.10;99.90;;;;;;5062718;28;20036;-68
2022/12/03 01:38:53;;;;;;;35.50;16.73;;;3.20;99.90;;;;;;5057275;28;20033;-68
2022/12/03 01:41:20;;;;;;;38.03;15.65;;;3.10;99.90;;;;;;5051829;28;20063;-68
2022/12/03 01:43:46;;;;;;;35.70;14.57;;;3.20;99.90;;;;;;5041441;28;20011;-68
2022/12/03 01:46:16;;;;;;;39.95;16.55;;;3.20;99.90;;;;;;5061179;28;20041;-68
2022/12/03 01:48:43;;;;;;;37.72;15.75;;;3.20;99.90;;;;;;5060956;28;20043;-68
2022/12/03 01:51:08;;;;;;;41.25;15.70;;;3.20;99.90;;;;;;5039414;28;20032;-68
2022/12/03 01:53:34;;;;;;;40.13;16.55;;;3.20;99.90;;;;;;5061992;28;20041;-68
2022/12/03 01:56:00;;;;;;;38.35;15.35;;;3.30;99.90;;;;;;5058612;28;20041;-68
2022/12/03 01:58:27;;;;;;;38.30;15.48;;;3.30;99.90;;;;;;5041233;28;20041;-68
2022/12/03 02:00:53;;;;;;;35.40;15.88;;;3.30;99.90;;;;;;5060056;28;20033;-68
2022/12/03 02:03:24;;;;;;;29.02;13.63;;;3.30;99.90;;;;;;5046480;28;20036;-68
2022/12/03 02:05:51;;;;;;;35.95;15.55;;;3.30;99.90;;;;;;5051828;28;20037;-68
2022/12/03 02:08:26;;;;;;;34.03;15.50;;;3.30;99.90;;;;;;5054368;28;20029;-68
2022/12/03 02:10:52;;;;;;;36.70;15.95;;;3.30;99.90;;;;;;5052696;28;20067;-68
2022/12/03 02:13:18;;;;;;;35.95;15.30;;;3.30;99.90;;;;;;5063090;28;20481;-68
2022/12/03 02:15:44;;;;;;;38.13;16.30;;;3.30;99.90;;;;;;5053973;28;20482;-68
2022/12/03 02:18:09;;;;;;;34.17;14.07;;;3.30;99.90;;;;;;5035512;28;20097;-68
2022/12/03 02:20:49;;;;;;;31.60;16.00;;;3.30;99.90;;;;;;5057513;28;20069;-68
2022/12/03 02:23:29;;;;;;;35.80;16.58;;;3.30;99.90;;;;;;5055764;28;20078;-68
2022/12/03 02:26:10;;;;;;;32.38;14.23;;;3.30;99.90;;;;;;5060758;28;20119;-68
2022/12/03 02:28:37;;;;;;;29.30;14.30;;;3.30;99.90;;;;;;5064914;28;20120;-68
2022/12/03 02:31:04;;;;;;;32.47;14.50;;;3.30;99.90;;;;;;5049367;28;20094;-68
2022/12/03 02:33:30;;;;;;;30.92;13.80;;;3.30;99.90;;;;;;5049086;28;20033;-68
2022/12/03 02:35:55;;;;;;;31.35;14.40;;;3.30;99.90;;;;;;5057323;28;20116;-68
2022/12/03 02:38:27;;;;;;;34.30;15.23;;;3.30;99.90;;;;;;5028296;28;20119;-68
2022/12/03 02:40:58;;;;;;;33.92;14.50;;;3.30;99.90;;;;;;5050621;28;20037;-68
2022/12/03 02:43:24;;;;;;;29.42;13.95;;;3.30;99.90;;;;;;5048879;28;20124;-67
2022/12/03 02:45:54;;;;;;;37.35;16.52;;;3.30;99.90;;;;;;5050853;28;20036;-68
2022/12/03 02:48:25;;;;;;;37.28;16.00;;;3.30;99.90;;;;;;5049102;28;20032;-68
2022/12/03 02:51:00;;;;;;;31.52;13.93;;;3.30;99.90;;;;;;5050642;28;20036;-68
2022/12/03 02:53:33;;;;;;;32.72;14.15;;;3.30;99.90;;;;;;5050031;28;20087;-68
2022/12/03 02:56:01;;;;;;;38.75;18.63;;;3.30;99.90;;;;;;5054697;28;20093;-68
2022/12/03 02:58:29;;;;;;;33.58;15.20;;;3.30;99.90;;;;;;5054550;28;20072;-68
2022/12/03 03:00:57;;;;;;;38.22;16.80;;;3.30;99.90;;;;;;5048891;28;20048;-68
2022/12/03 03:03:24;;;;;;;37.22;16.92;;;3.30;99.90;;;;;;5053360;28;20029;-68
2022/12/03 03:05:50;;;;;;;38.17;16.05;;;3.30;99.90;;;;;;5046744;28;20116;-68
2022/12/03 03:08:17;;;;;;;35.30;16.20;;;3.30;99.90;;;;;;5048293;28;20141;-68
2022/12/03 03:10:43;;;;;;;36.83;17.38;;;3.30;99.90;;;;;;5056416;28;20508;-68
2022/12/03 03:13:11;;;;;;;33.15;15.02;;;3.30;99.90;;;;;;5024288;28;20132;-68
2022/12/03 03:15:39;;;;;;;34.63;15.30;;;3.30;99.90;;;;;;5048071;28;20147;-68
2022/12/03 03:18:06;;;;;;;33.67;16.05;;;3.30;99.90;;;;;;5046909;28;20037;-67
2022/12/03 03:20:32;;;;;;;35.63;16.25;;;3.30;99.90;;;;;;5047581;28;20094;-67
2022/12/03 03:23:09;;;;;;;36.53;17.08;;;3.30;99.90;;;;;;5064760;28;20489;-67
2022/12/03 03:25:41;;;;;;;37.25;16.70;;;3.30;99.90;;;;;;5062728;28;20123;-67
2022/12/03 03:28:07;;;;;;;40.65;17.35;;;3.30;99.90;;;;;;5049155;28;20405;-68
2022/12/03 03:30:34;;;;;;;38.25;17.33;;;3.30;99.90;;;;;;5056039;28;20045;-67
2022/12/03 03:33:00;;;;;;;39.03;17.33;;;3.20;99.90;;;;;;5033536;28;20046;-67
2022/12/03 03:35:26;;;;;;;44.38;18.60;;;3.30;99.90;;;;;;5024046;28;20486;-67
2022/12/03 03:37:53;;;;;;;38.95;18.38;;;3.30;99.90;;;;;;5047008;28;20151;-67
2022/12/03 03:40:20;;;;;;;43.28;17.88;;;3.30;99.90;;;;;;5061084;28;20036;-67
2022/12/03 03:42:47;;;;;;;38.05;16.85;;;3.30;99.90;;;;;;5055162;28;20033;-68
2022/12/03 03:45:13;;;;;;;36.05;16.52;;;3.30;99.90;;;;;;5044662;28;20039;-67
2022/12/03 03:47:39;;;;;;;35.67;16.48;;;3.20;99.90;;;;;;5044113;28;20033;-67
2022/12/03 03:50:07;;;;;;;39.33;17.27;;;3.20;99.90;;;;;;5059377;28;20064;-67
2022/12/03 03:52:33;;;;;;;35.67;15.82;;;3.20;99.90;;;;;;5056645;28;20037;-67
2022/12/03 03:54:59;;;;;;;33.42;16.60;;;3.30;99.90;;;;;;5045059;28;20032;-67
2022/12/03 03:57:25;;;;;;;34.00;16.15;;;3.20;99.90;;;;;;5067363;28;20047;-67
2022/12/03 03:59:50;;;;;;;38.20;16.95;;;3.20;99.90;;;;;;5058443;28;20538;-67
2022/12/03 04:02:21;;;;;;;35.80;14.93;;;3.20;99.90;;;;;;5045785;28;20036;-67
2022/12/03 04:04:48;;;;;;;36.40;17.30;;;3.20;99.90;;;;;;5045163;28;20553;-67
2022/12/03 04:07:14;;;;;;;35.78;15.73;;;3.20;99.90;;;;;;5063360;28;20527;-68
2022/12/03 04:09:40;;;;;;;33.72;15.75;;;3.20;99.90;;;;;;5062408;28;20047;-68
2022/12/03 04:14:50;;;;;;;32.63;14.15;;;3.20;99.90;;;;;;5053950;28;20199;-68
2022/12/03 04:17:15;;;;;;;33.55;15.88;;;3.10;99.90;;;;;;5053463;28;20557;-68
2022/12/03 04:19:41;;;;;;;31.20;14.27;;;3.10;99.90;;;;;;5044373;28;20040;-68
2022/12/03 04:24:50;;;;;;;33.10;13.82;;;3.10;99.90;;;;;;5062085;28;20053;-68
2022/12/03 04:30:00;;;;;;;33.30;16.15;;;3.10;99.90;;;;;;5060690;28;20183;-68
2022/12/03 04:37:55;;;;;;;34.03;15.18;;;3.10;99.90;;;;;;5053304;28;20488;-68
2022/12/03 04:43:04;;;;;;;30.77;13.57;;;3.10;99.90;;;;;;5062763;28;20047;-68
2022/12/03 04:45:30;;;;;;;36.40;16.13;;;3.00;99.90;;;;;;5054133;28;20116;-68
2022/12/03 04:47:55;;;;;;;35.20;16.55;;;3.00;99.90;;;;;;5053241;28;20059;-68
2022/12/03 04:50:21;;;;;;;37.70;16.63;;;3.00;99.90;;;;;;5053387;28;20898;-68
2022/12/03 04:52:46;;;;;;;35.97;17.15;;;3.00;99.90;;;;;;5052298;28;20041;-68
2022/12/03 04:55:12;;;;;;;30.63;15.05;;;3.00;99.90;;;;;;5064003;28;20033;-68
2022/12/03 04:57:38;;;;;;;34.40;16.27;;;3.00;99.90;;;;;;5058982;28;20045;-68
2022/12/03 05:00:04;;;;;;;34.75;16.60;;;3.00;99.90;;;;;;5054507;28;20068;-68
2022/12/03 05:02:30;;;;;;;35.80;16.65;;;3.00;99.90;;;;;;5031940;28;20497;-68
2022/12/03 05:04:55;;;;;;;32.03;14.77;;;3.00;99.90;;;;;;5035758;28;20119;-68
2022/12/03 05:07:21;;;;;;;37.13;15.48;;;3.00;99.90;;;;;;5050388;28;20076;-68
2022/12/03 05:09:46;;;;;;;36.38;16.88;;;3.00;99.90;;;;;;5043930;28;20119;-68
2022/12/03 05:12:12;;;;;;;34.70;16.13;;;2.90;99.90;;;;;;5047564;28;20044;-68
2022/12/03 05:14:38;;;;;;;36.63;16.42;;;2.90;99.90;;;;;;5060972;28;20116;-68
2022/12/03 05:17:03;;;;;;;36.75;15.52;;;2.90;99.90;;;;;;5045833;28;20045;-68
2022/12/03 05:22:13;;;;;;;29.42;13.68;;;2.90;99.90;;;;;;5059391;28;20048;-68
2022/12/03 05:24:38;;;;;;;34.13;15.45;;;2.90;99.90;;;;;;5052042;28;20119;-67
2022/12/03 05:27:04;;;;;;;38.35;17.15;;;2.90;99.90;;;;;;5050386;28;20040;-67
2022/12/03 05:29:29;;;;;;;36.08;16.83;;;2.90;99.90;;;;;;5049244;28;20033;-68
2022/12/03 05:31:55;;;;;;;36.17;16.95;;;2.90;99.90;;;;;;5053662;28;20470;-67
2022/12/03 05:34:20;;;;;;;35.33;16.23;;;2.90;99.90;;;;;;5050878;28;20041;-68
2022/12/03 05:36:46;;;;;;;33.55;17.20;;;2.90;99.90;;;;;;5059493;28;20109;-68
2022/12/03 05:39:11;;;;;;;39.55;16.98;;;2.90;99.90;;;;;;5046097;28;20513;-67
2022/12/03 05:44:21;;;;;;;32.67;16.23;;;2.90;99.90;;;;;;5053716;28;20040;-67
2022/12/03 05:46:47;;;;;;;34.20;17.10;;;2.90;99.90;;;;;;5041975;28;20040;-68
2022/12/03 05:49:12;;;;;;;39.85;17.30;;;2.90;99.90;;;;;;5050978;28;20057;-67
2022/12/03 05:51:38;;;;;;;32.63;15.98;;;2.90;99.90;;;;;;5046630;28;20033;-68
2022/12/03 05:54:03;;;;;;;37.83;16.23;;;2.90;99.90;;;;;;5059015;28;20067;-67
2022/12/03 05:56:29;;;;;;;38.15;16.63;;;2.90;99.90;;;;;;5048777;28;20037;-67
2022/12/03 05:58:55;;;;;;;36.58;16.63;;;2.90;99.90;;;;;;5053779;28;20036;-68
2022/12/03 06:01:20;;;;;;;35.05;16.58;;;2.80;99.90;;;;;;5051721;28;20033;-67
2022/12/03 06:03:46;;;;;;;38.55;17.98;;;2.90;99.90;;;;;;5052597;28;20060;-67
2022/12/03 06:06:11;;;;;;;42.75;18.20;;;2.90;99.90;;;;;;5052101;28;20028;-67
2022/12/03 06:08:37;;;;;;;37.70;17.02;;;2.80;99.90;;;;;;5058447;28;20029;-68
2022/12/03 06:11:02;;;;;;;37.80;16.77;;;2.80;99.90;;;;;;5050997;28;20041;-67
2022/12/03 06:13:28;;;;;;;41.35;17.95;;;2.80;99.90;;;;;;5058302;28;20028;-67
2022/12/03 06:15:53;;;;;;;37.60;17.60;;;2.80;99.90;;;;;;5061035;28;20044;-68
2022/12/03 06:18:19;;;;;;;38.28;17.67;;;2.80;99.90;;;;;;5046679;28;20063;-68
2022/12/03 06:20:45;;;;;;;37.60;17.27;;;2.80;99.90;;;;;;5072643;28;20397;-68
2022/12/03 06:23:10;;;;;;;45.50;18.65;;;2.80;99.90;;;;;;5049744;28;20033;-67
2022/12/03 06:25:36;;;;;;;42.28;20.77;;;2.80;99.90;;;;;;5059669;28;20080;-68
2022/12/03 06:28:01;;;;;;;43.17;20.02;;;2.80;99.90;;;;;;5071043;22;20049;-66
2022/12/03 06:30:27;;;;;;;39.83;17.35;;;2.80;99.90;;;;;;5049661;28;20043;-66
2022/12/03 06:32:53;;;;;;;46.20;20.02;;;2.70;99.90;;;;;;5051207;28;20045;-66
2022/12/03 06:35:18;;;;;;;54.30;22.80;;;2.60;99.90;;;;;;5049755;28;20433;-66
2022/12/03 06:37:44;;;;;;;47.95;20.65;;;2.70;99.90;;;;;;5050940;28;20048;-67
2022/12/03 06:40:10;;;;;;;50.92;23.17;;;2.70;99.90;;;;;;5045389;28;20060;-66
2022/12/03 06:42:35;;;;;;;46.88;20.13;;;2.60;99.90;;;;;;5046776;28;20040;-66
2022/12/03 06:45:02;;;;;;;47.83;20.77;;;2.60;99.90;;;;;;5049226;28;20033;-66
2022/12/03 06:47:27;;;;;;;47.80;20.83;;;2.60;99.90;;;;;;5049003;28;20033;-66
2022/12/03 06:49:53;;;;;;;47.08;20.80;;;2.50;99.90;;;;;;5045824;28;20044;-66
2022/12/03 06:52:19;;;;;;;48.72;21.10;;;2.50;99.90;;;;;;5047932;28;20463;-66
2022/12/03 06:54:44;;;;;;;44.75;21.27;;;2.50;99.90;;;;;;5045813;28;20495;-66
2022/12/03 06:57:10;;;;;;;44.22;20.45;;;2.50;99.90;;;;;;5047837;28;20174;-66
2022/12/03 06:59:36;;;;;;;49.13;20.85;;;2.50;99.90;;;;;;5047039;28;20037;-66
2022/12/03 07:02:02;;;;;;;50.03;21.15;;;2.50;99.90;;;;;;5045992;28;20041;-66
2022/12/03 07:04:28;;;;;;;46.30;19.73;;;2.40;99.90;;;;;;5048922;28;20044;-66
2022/12/03 07:06:54;;;;;;;47.95;21.10;;;2.40;99.90;;;;;;5045903;28;20037;-67
2022/12/03 07:09:19;;;;;;;49.88;21.58;;;2.40;99.90;;;;;;5047237;28;20037;-66
2022/12/03 07:11:45;;;;;;;42.20;19.35;;;2.40;99.90;;;;;;5048587;28;20117;-67
2022/12/03 07:14:11;;;;;;;42.85;18.85;;;2.40;99.90;;;;;;5049941;28;20178;-67
2022/12/03 07:16:37;;;;;;;41.47;17.75;;;2.40;99.90;;;;;;5046264;28;20064;-66
2022/12/03 07:19:04;;;;;;;47.25;20.98;;;2.40;99.90;;;;;;5048299;28;20029;-66
2022/12/03 07:21:30;;;;;;;47.90;21.70;;;2.40;99.90;;;;;;5048141;28;20033;-66
2022/12/03 07:23:56;;;;;;;41.88;17.42;;;2.30;99.90;;;;;;5048657;28;20185;-65
2022/12/03 07:26:21;;;;;;;46.22;19.92;;;2.30;99.90;;;;;;5045679;28;20044;-66
2022/12/03 07:28:47;;;;;;;46.83;20.75;;;2.30;99.90;;;;;;5049298;28;20029;-66
2022/12/03 07:31:13;;;;;;;49.42;20.70;;;2.40;99.90;;;;;;5049718;28;20032;-66
2022/12/03 07:33:39;;;;;;;49.63;19.75;;;2.30;99.90;;;;;;5046408;28;20052;-66
2022/12/03 07:36:05;;;;;;;44.47;19.70;;;2.30;99.90;;;;;;5044922;28;20278;-65
2022/12/03 07:38:30;;;;;;;41.45;18.63;;;2.30;99.90;;;;;;5046307;28;20033;-65
2022/12/03 07:40:56;;;;;;;50.63;19.92;;;2.20;99.90;;;;;;5047505;28;20035;-65
2022/12/03 07:43:21;;;;;;;44.95;19.77;;;2.20;99.90;;;;;;5040972;28;20041;-65
2022/12/03 07:45:47;;;;;;;44.67;19.17;;;2.20;99.90;;;;;;5042841;28;20033;-64
2022/12/03 07:48:13;;;;;;;42.83;19.00;;;2.20;99.90;;;;;;5048710;28;20075;-65
2022/12/03 07:50:38;;;;;;;53.45;21.90;;;2.20;99.90;;;;;;5042947;28;20116;-65
2022/12/03 07:53:04;;;;;;;44.75;19.25;;;2.20;99.90;;;;;;5044120;28;20045;-65
2022/12/03 07:55:30;;;;;;;48.58;21.02;;;2.20;99.90;;;;;;5038875;28;20033;-65
2022/12/03 07:57:55;;;;;;;50.90;21.20;;;2.10;99.90;;;;;;5043534;28;20086;-65
2022/12/03 08:00:21;;;;;;;48.95;20.33;;;2.20;99.90;;;;;;5040707;28;20039;-65
2022/12/03 08:02:47;;;;;;;48.95;22.30;;;2.10;99.90;;;;;;5047400;28;20040;-65
2022/12/03 08:05:12;;;;;;;46.22;19.85;;;2.10;99.90;;;;;;5046824;28;20045;-65
2022/12/03 08:07:38;;;;;;;47.75;19.58;;;2.10;99.90;;;;;;5049479;28;20112;-65
2022/12/03 08:10:05;;;;;;;48.85;21.13;;;2.10;99.90;;;;;;5047084;28;20092;-65
2022/12/03 08:12:39;;;;;;;53.63;22.02;;;2.20;99.90;;;;;;5042808;28;20116;-65
2022/12/03 08:15:17;;;;;;;50.88;21.27;;;2.20;99.90;;;;;;5034940;28;20517;-65
2022/12/03 08:17:59;;;;;;;45.53;21.40;;;2.20;99.90;;;;;;5048035;28;20051;-65
2022/12/03 08:20:34;;;;;;;43.05;19.27;;;2.20;99.90;;;;;;5048164;28;20094;-65
2022/12/03 08:23:05;;;;;;;49.45;20.70;;;2.20;99.90;;;;;;5049281;28;20498;-65
2022/12/03 08:25:32;;;;;;;50.90;20.55;;;2.10;99.90;;;;;;5057516;28;20028;-65
2022/12/03 08:28:20;;;;;;;46.08;20.15;;;2.10;99.90;;;;;;5062546;28;20123;-65
2022/12/03 08:31:11;;;;;;;48.60;20.63;;;2.20;99.90;;;;;;5049641;28;20054;-65
2022/12/03 08:33:38;;;;;;;48.33;22.02;;;2.10;99.90;;;;;;5054456;28;20037;-65
2022/12/03 08:36:10;;;;;;;47.28;20.92;;;2.10;99.90;;;;;;5050245;28;20041;-66
2022/12/03 08:38:35;;;;;;;44.28;19.85;;;2.20;99.90;;;;;;5051763;28;20059;-65
2022/12/03 08:41:01;;;;;;;45.60;19.90;;;2.20;99.90;;;;;;5061421;28;20175;-65
2022/12/03 08:43:32;;;;;;;42.28;19.42;;;2.10;99.90;;;;;;5053152;28;20274;-65
2022/12/03 08:45:57;;;;;;;41.55;18.63;;;2.10;99.90;;;;;;5047918;28;20049;-65
2022/12/03 08:48:35;;;;;;;46.45;18.75;;;2.00;99.90;;;;;;5052175;28;20136;-65
2022/12/03 08:51:19;;;;;;;47.10;19.58;;;2.10;99.90;;;;;;5050376;28;20032;-65
2022/12/03 08:53:46;;;;;;;44.35;17.20;;;2.00;99.90;;;;;;5048791;28;20033;-65
2022/12/03 08:56:25;;;;;;;45.13;19.63;;;2.00;99.90;;;;;;5044489;28;20128;-66
2022/12/03 08:58:57;;;;;;;45.35;19.48;;;2.10;99.90;;;;;;5050204;28;20041;-65
2022/12/03 09:01:42;;;;;;;45.05;18.33;;;2.10;99.90;;;;;;5049098;28;20615;-65
2022/12/03 09:04:25;;;;;;;48.78;20.00;;;2.00;99.90;;;;;;5044074;28;20510;-65
2022/12/03 09:06:52;;;;;;;47.22;19.85;;;2.00;99.90;;;;;;5046003;28;20068;-65
2022/12/03 09:09:18;;;;;;;48.58;21.35;;;2.00;99.90;;;;;;5039062;28;20040;-65
2022/12/03 09:11:44;;;;;;;47.90;20.63;;;2.00;99.90;;;;;;5042340;28;20063;-65
2022/12/03 09:14:10;;;;;;;39.60;17.80;;;2.00;99.90;;;;;;5043784;28;20037;-65
2022/12/03 09:16:36;;;;;;;45.55;17.77;;;2.00;99.90;;;;;;5048120;28;20029;-65
2022/12/03 09:19:02;;;;;;;48.47;19.25;;;2.10;99.90;;;;;;5045818;28;20033;-65
2022/12/03 09:21:28;;;;;;;49.40;20.27;;;2.00;99.90;;;;;;5050574;28;20040;-65
2022/12/03 09:23:54;;;;;;;44.38;19.05;;;2.00;99.90;;;;;;5045098;28;20418;-65
2022/12/03 09:26:19;;;;;;;44.78;19.15;;;2.00;99.90;;;;;;5052162;28;20036;-65
2022/12/03 09:28:47;;;;;;;47.17;20.13;;;2.00;99.90;;;;;;5050966;28;20444;-65
2022/12/03 09:31:13;;;;;;;47.05;20.48;;;2.10;99.90;;;;;;5048050;28;20033;-65
2022/12/03 09:33:39;;;;;;;49.30;21.38;;;2.10;99.90;;;;;;5045219;28;20446;-65
2022/12/03 09:36:05;;;;;;;52.70;22.42;;;2.20;99.90;;;;;;5049513;28;20066;-65
2022/12/03 09:38:31;;;;;;;48.05;22.05;;;2.10;99.90;;;;;;5059404;28;20387;-65
2022/12/03 09:40:57;;;;;;;45.28;20.40;;;2.20;99.90;;;;;;5050478;28;20167;-65
2022/12/03 09:43:23;;;;;;;51.50;21.42;;;2.20;99.90;;;;;;5049180;28;20052;-66
2022/12/03 09:45:48;;;;;;;51.75;22.55;;;2.30;99.90;;;;;;5051436;28;20033;-65
2022/12/03 09:48:16;;;;;;;45.08;20.48;;;2.30;99.90;;;;;;5054913;28;20029;-65
2022/12/03 09:50:43;;;;;;;45.50;19.75;;;2.30;99.90;;;;;;5050028;28;20182;-65
2022/12/03 09:53:13;;;;;;;49.15;22.25;;;2.40;99.90;;;;;;5051543;28;20115;-65
2022/12/03 09:55:39;;;;;;;44.78;20.92;;;2.40;99.90;;;;;;5050910;28;20033;-66
2022/12/03 09:58:11;;;;;;;50.97;21.15;;;2.40;99.90;;;;;;5051637;28;20111;-66
2022/12/03 10:00:38;;;;;;;50.83;21.55;;;2.40;99.90;;;;;;5057717;28;20044;-66
2022/12/03 10:03:05;;;;;;;51.42;21.85;;;2.40;99.90;;;;;;5057959;28;20048;-66
2022/12/03 10:05:32;;;;;;;47.78;20.55;;;2.40;99.90;;;;;;5051657;28;20445;-66
2022/12/03 10:08:07;;;;;;;47.00;21.00;;;2.50;99.90;;;;;;5058128;28;20076;-65
2022/12/03 10:10:34;;;;;;;44.38;18.73;;;2.40;99.90;;;;;;5048380;28;20608;-66
2022/12/03 10:13:00;;;;;;;47.08;20.40;;;2.40;99.90;;;;;;5050114;28;20508;-65
2022/12/03 10:15:25;;;;;;;50.03;21.15;;;2.40;99.90;;;;;;5057902;28;20037;-66
2022/12/03 10:17:53;;;;;;;49.28;20.65;;;2.30;99.90;;;;;;5057292;28;20490;-66
2022/12/03 10:20:21;;;;;;;47.72;19.20;;;2.40;99.90;;;;;;5047353;28;20816;-66
2022/12/03 10:22:47;;;;;;;46.28;20.17;;;2.30;99.90;;;;;;5058320;28;20112;-66
2022/12/03 10:25:21;;;;;;;51.45;20.73;;;2.30;99.90;;;;;;5050831;28;20130;-66
2022/12/03 10:27:57;;;;;;;44.33;19.08;;;2.30;99.90;;;;;;5050258;28;20029;-66
2022/12/03 10:30:25;;;;;;;47.20;20.50;;;2.30;99.90;;;;;;5041492;28;20036;-65
2022/12/03 10:32:51;;;;;;;45.55;19.30;;;2.30;99.90;;;;;;5044731;28;20483;-65
2022/12/03 10:35:34;;;;;;;42.90;19.08;;;2.30;99.90;;;;;;5047523;28;20063;-65
2022/12/03 10:38:21;;;;;;;50.70;21.90;;;2.30;99.90;;;;;;5060688;28;20037;-66
2022/12/03 10:40:47;;;;;;;49.50;20.33;;;2.30;99.90;;;;;;5059103;28;20048;-65
2022/12/03 10:43:21;;;;;;;50.75;21.90;;;2.30;99.90;;;;;;5068076;28;20033;-65
2022/12/03 10:45:55;;;;;;;49.28;19.67;;;2.30;99.90;;;;;;5048575;28;20155;-65
2022/12/03 10:48:25;;;;;;;45.70;19.52;;;2.30;99.90;;;;;;5046722;28;20234;-65
2022/12/03 10:50:53;;;;;;;51.58;22.10;;;2.30;99.90;;;;;;5050742;28;20093;-65
2022/12/03 10:53:21;;;;;;;49.55;21.98;;;2.30;99.90;;;;;;5064613;28;20115;-65
2022/12/03 10:55:50;;;;;;;50.00;20.45;;;2.30;99.90;;;;;;5051245;28;20036;-65
2022/12/03 10:58:26;;;;;;;52.58;22.85;;;2.30;99.90;;;;;;5045381;28;20049;-66
2022/12/03 11:00:54;;;;;;;46.97;21.00;;;2.30;99.90;;;;;;5038915;28;20406;-65
2022/12/03 11:03:25;;;;;;;49.65;22.10;;;2.30;99.90;;;;;;5048527;28;20521;-65
2022/12/03 11:05:52;;;;;;;53.45;22.65;;;2.40;99.90;;;;;;5069007;28;20048;-66
2022/12/03 11:08:21;;;;;;;52.47;22.70;;;2.40;99.90;;;;;;5050111;28;20386;-65
2022/12/03 11:11:05;;;;;;;50.90;21.88;;;2.40;99.90;;;;;;5051177;28;20087;-65
2022/12/03 11:13:31;;;;;;;51.20;22.65;;;2.40;99.90;;;;;;5048395;28;20045;-65
2022/12/03 11:15:57;;;;;;;50.65;21.88;;;2.40;99.90;;;;;;5051120;28;20051;-65
2022/12/03 11:18:43;;;;;;;50.00;20.20;;;2.40;99.90;;;;;;5051381;28;20045;-65
2022/12/03 11:21:11;;;;;;;50.85;23.15;;;2.40;99.90;;;;;;5010906;28;20044;-65
2022/12/03 11:23:43;;;;;;;51.92;22.00;;;2.50;99.90;;;;;;5049921;28;20063;-65
2022/12/03 11:26:09;;;;;;;55.95;22.60;;;2.50;99.90;;;;;;5050674;28;20375;-65
2022/12/03 11:28:56;;;;;;;50.25;22.13;;;2.50;99.90;;;;;;5050575;28;20115;-65
2022/12/03 11:31:43;;;;;;;49.45;21.05;;;2.50;99.90;;;;;;5035065;28;20041;-65
2022/12/03 11:34:17;;;;;;;50.63;22.15;;;2.60;99.90;;;;;;5044045;28;20033;-65
2022/12/03 11:37:11;;;;;;;45.53;19.63;;;2.60;99.90;;;;;;5050400;28;20068;-66
2022/12/03 11:39:48;;;;;;;52.15;21.98;;;2.50;99.90;;;;;;5052279;28;20029;-66
2022/12/03 11:42:26;;;;;;;51.72;22.58;;;2.60;99.90;;;;;;5041526;28;20053;-66
2022/12/03 11:45:04;;;;;;;49.15;21.02;;;2.50;99.90;;;;;;5052849;28;20037;-66
2022/12/03 11:47:40;;;;;;;47.35;21.60;;;2.50;99.90;;;;;;5061966;28;20060;-66
2022/12/03 11:50:33;;;;;;;51.63;22.67;;;2.50;99.90;;;;;;5069874;28;20066;-66
2022/12/03 11:53:20;;;;;;;60.05;24.60;;;2.60;99.90;;;;;;5061704;28;20036;-65
2022/12/03 11:55:52;;;;;;;52.92;22.98;;;2.70;99.90;;;;;;5050741;28;21147;-65
2022/12/03 11:58:17;;;;;;;;;;;2.70;99.90;;;;;;5049550;28;20113;-65
2022/12/03 12:00:54;;;;;;;48.72;21.02;;;2.80;99.90;;;;;;5051211;28;20011;-65
2022/12/03 12:03:28;;;;;;;51.30;21.17;;;2.90;99.90;;;;;;5055267;28;20076;-66
2022/12/03 12:06:18;;;;;;;49.83;21.95;;;3.00;99.90;;;;;;5055119;28;20040;-65
2022/12/03 12:08:49;;;;;;;49.58;21.88;;;3.10;99.90;;;;;;5064277;28;20040;-65
2022/12/03 12:11:29;;;;;;;50.03;21.42;;;3.10;99.90;;;;;;5046900;28;20048;-65
2022/12/03 12:14:03;;;;;;;47.05;21.95;;;3.10;99.90;;;;;;5054360;28;20663;-65
2022/12/03 12:16:41;;;;;;;51.58;20.98;;;3.10;99.90;;;;;;5055103;28;20047;-65
2022/12/03 12:19:42;;;;;;;49.50;21.70;;;2.90;99.90;;;;;;5054518;28;20048;-65
2022/12/03 12:22:23;;;;;;;49.83;22.85;;;2.90;99.90;;;;;;5061877;28;20045;-65
2022/12/03 12:25:03;;;;;;;50.15;22.08;;;2.70;99.90;;;;;;5058301;28;20037;-65
2022/12/03 12:27:36;;;;;;;47.17;20.67;;;2.60;99.90;;;;;;5050045;28;20108;-70
2022/12/03 12:30:13;;;;;;;46.63;21.70;;;2.50;99.90;;;;;;5034207;28;20029;-66
2022/12/03 12:32:47;;;;;;;48.10;21.40;;;2.50;99.90;;;;;;5041718;28;20513;-65
2022/12/03 12:35:21;;;;;;;47.33;20.02;;;2.40;99.90;;;;;;5046976;28;20444;-65
2022/12/03 12:37:52;;;;;;;48.63;21.67;;;2.40;99.90;;;;;;5054120;28;20394;-65
2022/12/03 12:40:23;;;;;;;52.58;22.80;;;2.30;99.90;;;;;;5051176;28;20132;-65
2022/12/03 12:42:49;;;;;;;54.15;21.25;;;2.30;99.90;;;;;;5053190;28;20048;-65
2022/12/03 12:45:18;;;;;;;48.17;21.02;;;2.30;99.90;;;;;;5054519;28;20033;-65
2022/12/03 12:47:52;;;;;;;52.38;21.85;;;2.30;99.90;;;;;;5053350;28;20033;-65
2022/12/03 12:50:18;;;;;;;54.75;20.80;;;2.30;99.90;;;;;;5052964;28;20069;-65
2022/12/03 12:52:53;;;;;;;49.30;22.17;;;2.30;99.90;;;;;;5052355;28;20064;-65
2022/12/03 12:55:21;;;;;;;49.13;22.08;;;2.30;99.90;;;;;;5053680;28;20025;-65
2022/12/03 12:57:47;;;;;;;50.03;22.20;;;2.30;99.90;;;;;;5054272;28;20087;-65
2022/12/03 13:00:17;;;;;;;49.92;21.70;;;2.30;99.90;;;;;;5047397;28;20045;-65
2022/12/03 13:02:52;;;;;;;50.10;21.83;;;2.30;99.90;;;;;;5052130;28;20044;-66
2022/12/03 13:05:18;;;;;;;50.45;21.77;;;2.30;99.90;;;;;;5053522;28;20390;-65
2022/12/03 13:07:44;;;;;;;51.13;22.45;;;2.30;99.90;;;;;;5061077;28;20061;-65
2022/12/03 13:10:33;;;;;;;50.97;21.95;;;2.30;99.90;;;;;;5052402;28;20033;-65